Alagir, Russia
Current Conditions -  °F | °C
As of 12:00 PM on Monday 24 Nov 2014 (Local Time) from URMN Reporting Station
Haze Haze  
Wind Chill: 28°   Ceiling: 200
Heat Index: 28°   Visibility: 0.62mi
Dew Point: 28°   Wind: 2mph
Humidity: 100%   Direction: 60°ENE
Pressure: 30.36"   Gusts: NA
Location:  42.97°N, 44.21°E
Report Text: URMN 240900Z 06001MPS 1000 BR OVC002 M02/M02 Q1028 NOSIG RMKQBB070 MT OBSC OBST OBSC QFE733 SC055
Loading
Personal Weather Stations






























Interactive Weather Map New forecast layout! Learn more

10-Day Weather Forecast

Advertisements
Track Severe Weather on mobile